This is the latest recevied weather packets stored in our database for station/object NK7E. If no packets are shown the sender has not sent any weather packets the latest 10 day(s).
| Time | Temp. | Humidity | Pressure | Rain* | Wind** | Luminosity | Snow |
|---|---|---|---|---|---|---|---|
| 1778078416 | 16.11° C | 53% | 1016 hPa | 0 mm | - | 387 W/m² | - |
| 1778077816 | 15.56° C | 54% | 1016.1 hPa | 0 mm | - | 352 W/m² | - |
| 1778077216 | 15° C | 57% | 1016 hPa | 0 mm | - | 314 W/m² | - |
| 1778076616 | 15° C | 58% | 1016 hPa | 0 mm | - | 279 W/m² | - |
| 1778076016 | 14.44° C | 60% | 1015.9 hPa | 0 mm | - | 242 W/m² | - |
| 1778075416 | 13.89° C | 62% | 1015.9 hPa | 0 mm | - | 208 W/m² | - |
| 1778074816 | 13.33° C | 65% | 1015.9 hPa | 0 mm | - | 175 W/m² | - |
| 1778074216 | 12.22° C | 69% | 1015.8 hPa | 0 mm | - | 141 W/m² | - |
| 1778073616 | 11.67° C | 72% | 1015.6 hPa | 0 mm | - | 108 W/m² | - |
| 1778073016 | 11.11° C | 74% | 1015.6 hPa | 0 mm | - | 70 W/m² | - |
| 1778072416 | 10.56° C | 74% | 1015.5 hPa | 0 mm | - | 17 W/m² | - |
| 1778071816 | 10.56° C | 74% | 1015.5 hPa | 0 mm | - | 12 W/m² | - |
| 1778071216 | 11.11° C | 74% | 1015.3 hPa | 0 mm | - | 7 W/m² | - |
| 1778070616 | 11.11° C | 73% | 1015.2 hPa | 0 mm | - | 0 W/m² | - |
| 1778070016 | 11.11° C | 71% | 1015.1 hPa | 0 mm | - | 0 W/m² | - |
| 1778069416 | 11.67° C | 70% | 1015.1 hPa | 0 mm | - | 0 W/m² | - |
| 1778068816 | 11.67° C | 69% | 1015 hPa | 0 mm | - | 0 W/m² | - |
| 1778068216 | 12.22° C | 67% | 1015.1 hPa | 0 mm | - | 0 W/m² | - |
| 1778067616 | 12.22° C | 67% | 1015 hPa | 0 mm | - | 0 W/m² | - |
| 1778067015 | 12.22° C | 65% | 1014.9 hPa | 0 mm | - | 0 W/m² | - |
| 1778066416 | 12.22° C | 65% | 1014.9 hPa | 0 mm | - | 0 W/m² | - |
| 1778065816 | 12.22° C | 65% | 1014.8 hPa | 0 mm | - | 0 W/m² | - |
| 1778065215 | 12.22° C | 64% | 1014.7 hPa | 0 mm | - | 0 W/m² | - |
| 1778064616 | 12.22° C | 63% | 1014.7 hPa | 0 mm | - | 0 W/m² | - |
| 1778064016 | 12.78° C | 62% | 1014.6 hPa | 0 mm | - | 0 W/m² | - |
* Rain latest hour (hover to see other rain measurements)
** Current wind speed in m/s (hover to see current wind gust speed)